sensor_id;sensor_type;location;lat;lon;timestamp;P1;durP1;ratioP1;P2;durP2;ratioP2
3795;SDS011;1913;50.660;7.834;2023-02-01T00:01:48;33.73;;;14.83;;
3795;SDS011;1913;50.660;7.834;2023-02-01T00:04:13;31.73;;;15.20;;
3795;SDS011;1913;50.660;7.834;2023-02-01T00:06:39;35.33;;;13.67;;
3795;SDS011;1913;50.660;7.834;2023-02-01T00:09:04;35.80;;;14.57;;
3795;SDS011;1913;50.660;7.834;2023-02-01T00:11:30;37.90;;;13.73;;
3795;SDS011;1913;50.660;7.834;2023-02-01T00:13:56;39.33;;;14.50;;
3795;SDS011;1913;50.660;7.834;2023-02-01T00:16:22;28.30;;;13.50;;
3795;SDS011;1913;50.660;7.834;2023-02-01T00:18:51;40.83;;;14.73;;
3795;SDS011;1913;50.660;7.834;2023-02-01T00:21:21;42.03;;;14.63;;
3795;SDS011;1913;50.660;7.834;2023-02-01T00:23:47;33.80;;;14.30;;
3795;SDS011;1913;50.660;7.834;2023-02-01T00:26:14;31.77;;;14.30;;
3795;SDS011;1913;50.660;7.834;2023-02-01T00:28:42;34.37;;;13.57;;
3795;SDS011;1913;50.660;7.834;2023-02-01T00:31:07;37.63;;;15.73;;
3795;SDS011;1913;50.660;7.834;2023-02-01T00:33:33;37.13;;;15.20;;
3795;SDS011;1913;50.660;7.834;2023-02-01T00:35:59;38.40;;;15.00;;
3795;SDS011;1913;50.660;7.834;2023-02-01T00:38:27;51.40;;;16.40;;
3795;SDS011;1913;50.660;7.834;2023-02-01T00:40:53;36.77;;;14.30;;
3795;SDS011;1913;50.660;7.834;2023-02-01T00:43:20;25.97;;;14.77;;
3795;SDS011;1913;50.660;7.834;2023-02-01T00:45:46;36.40;;;13.40;;
3795;SDS011;1913;50.660;7.834;2023-02-01T00:48:12;36.47;;;14.70;;
3795;SDS011;1913;50.660;7.834;2023-02-01T00:50:41;31.60;;;14.03;;
3795;SDS011;1913;50.660;7.834;2023-02-01T00:53:08;33.60;;;12.73;;
3795;SDS011;1913;50.660;7.834;2023-02-01T00:55:34;36.37;;;13.57;;
3795;SDS011;1913;50.660;7.834;2023-02-01T00:57:59;31.07;;;13.80;;
3795;SDS011;1913;50.660;7.834;2023-02-01T01:00:25;26.53;;;11.93;;
3795;SDS011;1913;50.660;7.834;2023-02-01T01:02:50;34.60;;;13.53;;
3795;SDS011;1913;50.660;7.834;2023-02-01T01:05:15;26.43;;;12.60;;
3795;SDS011;1913;50.660;7.834;2023-02-01T01:07:41;30.33;;;13.93;;
3795;SDS011;1913;50.660;7.834;2023-02-01T01:10:06;32.90;;;12.90;;
3795;SDS011;1913;50.660;7.834;2023-02-01T01:12:32;25.60;;;12.90;;
3795;SDS011;1913;50.660;7.834;2023-02-01T01:14:58;32.27;;;12.83;;
3795;SDS011;1913;50.660;7.834;2023-02-01T01:17:23;24.03;;;11.83;;
3795;SDS011;1913;50.660;7.834;2023-02-01T01:19:48;35.57;;;13.40;;
3795;SDS011;1913;50.660;7.834;2023-02-01T01:22:14;27.03;;;12.47;;
3795;SDS011;1913;50.660;7.834;2023-02-01T01:24:39;26.10;;;11.03;;
3795;SDS011;1913;50.660;7.834;2023-02-01T01:27:04;30.63;;;11.30;;
3795;SDS011;1913;50.660;7.834;2023-02-01T01:29:30;25.97;;;11.93;;
3795;SDS011;1913;50.660;7.834;2023-02-01T01:31:55;28.70;;;11.20;;
3795;SDS011;1913;50.660;7.834;2023-02-01T01:34:21;22.30;;;9.77;;
3795;SDS011;1913;50.660;7.834;2023-02-01T01:36:46;26.10;;;10.37;;
3795;SDS011;1913;50.660;7.834;2023-02-01T01:39:12;21.30;;;9.67;;
3795;SDS011;1913;50.660;7.834;2023-02-01T01:41:37;27.60;;;9.07;;
3795;SDS011;1913;50.660;7.834;2023-02-01T01:44:04;23.20;;;9.03;;
3795;SDS011;1913;50.660;7.834;2023-02-01T01:46:34;23.27;;;9.20;;
3795;SDS011;1913;50.660;7.834;2023-02-01T01:51:35;26.60;;;9.27;;
3795;SDS011;1913;50.660;7.834;2023-02-01T01:54:47;21.33;;;8.87;;
3795;SDS011;1913;50.660;7.834;2023-02-01T01:56:59;24.30;;;8.47;;
3795;SDS011;1913;50.660;7.834;2023-02-01T01:59:29;20.87;;;8.57;;
3795;SDS011;1913;50.660;7.834;2023-02-01T02:01:57;23.20;;;7.33;;
3795;SDS011;1913;50.660;7.834;2023-02-01T02:04:23;19.97;;;7.50;;
3795;SDS011;1913;50.660;7.834;2023-02-01T02:06:51;20.93;;;7.63;;
3795;SDS011;1913;50.660;7.834;2023-02-01T02:09:27;20.23;;;6.73;;
3795;SDS011;1913;50.660;7.834;2023-02-01T02:11:53;26.53;;;6.60;;
3795;SDS011;1913;50.660;7.834;2023-02-01T02:14:19;16.20;;;5.70;;
3795;SDS011;1913;50.660;7.834;2023-02-01T02:38:47;20.73;;;3.90;;
3795;SDS011;1913;50.660;7.834;2023-02-01T02:41:13;13.03;;;4.00;;
3795;SDS011;1913;50.660;7.834;2023-02-01T02:44:06;14.43;;;4.37;;
3795;SDS011;1913;50.660;7.834;2023-02-01T02:46:57;19.40;;;5.00;;
3795;SDS011;1913;50.660;7.834;2023-02-01T02:49:49;19.37;;;4.97;;
3795;SDS011;1913;50.660;7.834;2023-02-01T02:52:36;14.70;;;3.90;;
3795;SDS011;1913;50.660;7.834;2023-02-01T02:55:27;13.63;;;4.47;;
3795;SDS011;1913;50.660;7.834;2023-02-01T02:57:55;17.13;;;5.37;;
3795;SDS011;1913;50.660;7.834;2023-02-01T03:00:41;15.73;;;5.70;;
3795;SDS011;1913;50.660;7.834;2023-02-01T03:03:26;22.77;;;5.07;;
3795;SDS011;1913;50.660;7.834;2023-02-01T03:06:12;15.83;;;4.20;;
3795;SDS011;1913;50.660;7.834;2023-02-01T03:08:46;16.33;;;3.80;;
3795;SDS011;1913;50.660;7.834;2023-02-01T03:11:13;15.50;;;4.10;;
3795;SDS011;1913;50.660;7.834;2023-02-01T03:22:03;23.77;;;5.03;;
3795;SDS011;1913;50.660;7.834;2023-02-01T03:24:34;12.37;;;4.10;;
3795;SDS011;1913;50.660;7.834;2023-02-01T03:27:17;18.70;;;4.67;;
3795;SDS011;1913;50.660;7.834;2023-02-01T03:29:48;11.90;;;4.17;;
3795;SDS011;1913;50.660;7.834;2023-02-01T03:32:18;16.67;;;4.60;;
3795;SDS011;1913;50.660;7.834;2023-02-01T03:34:44;12.27;;;4.40;;
3795;SDS011;1913;50.660;7.834;2023-02-01T03:37:11;16.20;;;4.80;;
3795;SDS011;1913;50.660;7.834;2023-02-01T03:39:48;23.60;;;4.70;;
3795;SDS011;1913;50.660;7.834;2023-02-01T03:42:16;20.63;;;5.20;;
3795;SDS011;1913;50.660;7.834;2023-02-01T03:44:51;14.17;;;3.93;;
3795;SDS011;1913;50.660;7.834;2023-02-01T03:47:24;16.73;;;4.57;;
3795;SDS011;1913;50.660;7.834;2023-02-01T03:49:54;16.03;;;5.13;;
3795;SDS011;1913;50.660;7.834;2023-02-01T03:52:28;19.07;;;4.53;;
3795;SDS011;1913;50.660;7.834;2023-02-01T03:54:59;19.57;;;5.03;;
3795;SDS011;1913;50.660;7.834;2023-02-01T03:57:27;18.27;;;4.80;;
3795;SDS011;1913;50.660;7.834;2023-02-01T04:00:03;18.43;;;4.93;;
3795;SDS011;1913;50.660;7.834;2023-02-01T04:02:32;27.50;;;6.60;;
3795;SDS011;1913;50.660;7.834;2023-02-01T04:04:58;22.57;;;5.80;;
3795;SDS011;1913;50.660;7.834;2023-02-01T04:07:23;22.90;;;6.50;;
3795;SDS011;1913;50.660;7.834;2023-02-01T04:09:48;20.17;;;5.23;;
3795;SDS011;1913;50.660;7.834;2023-02-01T04:12:14;18.53;;;5.63;;
3795;SDS011;1913;50.660;7.834;2023-02-01T04:14:39;13.13;;;4.87;;
3795;SDS011;1913;50.660;7.834;2023-02-01T04:17:05;23.57;;;4.93;;
3795;SDS011;1913;50.660;7.834;2023-02-01T04:19:30;22.33;;;5.60;;
3795;SDS011;1913;50.660;7.834;2023-02-01T04:21:55;15.67;;;4.97;;
3795;SDS011;1913;50.660;7.834;2023-02-01T04:24:21;20.07;;;5.20;;
3795;SDS011;1913;50.660;7.834;2023-02-01T04:26:46;17.10;;;5.67;;
3795;SDS011;1913;50.660;7.834;2023-02-01T04:29:12;22.97;;;5.40;;
3795;SDS011;1913;50.660;7.834;2023-02-01T04:31:37;15.60;;;5.30;;
3795;SDS011;1913;50.660;7.834;2023-02-01T04:34:03;25.73;;;5.10;;
3795;SDS011;1913;50.660;7.834;2023-02-01T04:36:28;25.20;;;5.47;;
3795;SDS011;1913;50.660;7.834;2023-02-01T04:38:53;19.63;;;6.20;;
3795;SDS011;1913;50.660;7.834;2023-02-01T04:41:19;17.80;;;5.73;;
3795;SDS011;1913;50.660;7.834;2023-02-01T04:43:46;24.37;;;5.67;;
3795;SDS011;1913;50.660;7.834;2023-02-01T04:46:12;19.40;;;5.03;;
3795;SDS011;1913;50.660;7.834;2023-02-01T04:48:37;22.63;;;5.50;;
3795;SDS011;1913;50.660;7.834;2023-02-01T04:51:03;17.00;;;5.70;;
3795;SDS011;1913;50.660;7.834;2023-02-01T04:53:28;20.10;;;5.73;;
3795;SDS011;1913;50.660;7.834;2023-02-01T04:55:55;19.43;;;5.13;;
3795;SDS011;1913;50.660;7.834;2023-02-01T04:58:20;23.27;;;4.80;;
3795;SDS011;1913;50.660;7.834;2023-02-01T05:00:46;26.27;;;5.27;;
3795;SDS011;1913;50.660;7.834;2023-02-01T05:03:11;19.37;;;5.23;;
3795;SDS011;1913;50.660;7.834;2023-02-01T05:05:36;15.70;;;5.20;;
3795;SDS011;1913;50.660;7.834;2023-02-01T05:08:02;19.23;;;5.20;;
3795;SDS011;1913;50.660;7.834;2023-02-01T05:10:28;17.63;;;5.90;;
3795;SDS011;1913;50.660;7.834;2023-02-01T05:12:53;20.13;;;5.10;;
3795;SDS011;1913;50.660;7.834;2023-02-01T05:15:37;28.43;;;5.07;;
3795;SDS011;1913;50.660;7.834;2023-02-01T05:18:03;27.70;;;6.60;;
3795;SDS011;1913;50.660;7.834;2023-02-01T05:20:28;28.90;;;5.73;;
3795;SDS011;1913;50.660;7.834;2023-02-01T05:22:53;22.87;;;5.83;;
3795;SDS011;1913;50.660;7.834;2023-02-01T05:25:19;23.47;;;6.30;;
3795;SDS011;1913;50.660;7.834;2023-02-01T05:27:44;31.80;;;5.70;;
3795;SDS011;1913;50.660;7.834;2023-02-01T05:30:10;25.20;;;5.80;;
3795;SDS011;1913;50.660;7.834;2023-02-01T05:32:36;19.43;;;5.70;;
3795;SDS011;1913;50.660;7.834;2023-02-01T05:35:01;21.50;;;5.80;;
3795;SDS011;1913;50.660;7.834;2023-02-01T05:37:26;18.43;;;5.07;;
3795;SDS011;1913;50.660;7.834;2023-02-01T05:39:52;21.73;;;5.63;;
3795;SDS011;1913;50.660;7.834;2023-02-01T05:42:18;26.90;;;6.50;;
3795;SDS011;1913;50.660;7.834;2023-02-01T05:44:44;20.10;;;5.47;;
3795;SDS011;1913;50.660;7.834;2023-02-01T05:47:09;27.20;;;5.57;;
3795;SDS011;1913;50.660;7.834;2023-02-01T05:49:35;25.97;;;6.30;;
3795;SDS011;1913;50.660;7.834;2023-02-01T05:52:00;33.43;;;5.83;;
3795;SDS011;1913;50.660;7.834;2023-02-01T05:54:26;16.80;;;5.37;;
3795;SDS011;1913;50.660;7.834;2023-02-01T05:56:52;19.43;;;5.80;;
3795;SDS011;1913;50.660;7.834;2023-02-01T05:59:17;36.13;;;6.30;;
3795;SDS011;1913;50.660;7.834;2023-02-01T06:01:43;19.77;;;4.80;;
3795;SDS011;1913;50.660;7.834;2023-02-01T06:04:08;25.73;;;5.30;;
3795;SDS011;1913;50.660;7.834;2023-02-01T06:06:33;26.30;;;6.10;;
3795;SDS011;1913;50.660;7.834;2023-02-01T06:08:59;22.30;;;5.30;;
3795;SDS011;1913;50.660;7.834;2023-02-01T06:11:25;26.80;;;5.13;;
3795;SDS011;1913;50.660;7.834;2023-02-01T06:13:51;24.93;;;5.90;;
3795;SDS011;1913;50.660;7.834;2023-02-01T06:16:16;26.67;;;5.43;;
3795;SDS011;1913;50.660;7.834;2023-02-01T06:18:42;17.83;;;4.37;;
3795;SDS011;1913;50.660;7.834;2023-02-01T06:21:07;12.70;;;5.13;;
3795;SDS011;1913;50.660;7.834;2023-02-01T06:23:33;22.03;;;4.90;;
3795;SDS011;1913;50.660;7.834;2023-02-01T06:26:03;18.43;;;5.43;;
3795;SDS011;1913;50.660;7.834;2023-02-01T06:28:31;21.07;;;5.00;;
3795;SDS011;1913;50.660;7.834;2023-02-01T06:30:57;23.27;;;5.83;;
3795;SDS011;1913;50.660;7.834;2023-02-01T06:33:23;22.80;;;4.73;;
3795;SDS011;1913;50.660;7.834;2023-02-01T06:35:55;28.77;;;4.50;;
3795;SDS011;1913;50.660;7.834;2023-02-01T06:38:22;20.40;;;5.10;;
3795;SDS011;1913;50.660;7.834;2023-02-01T06:40:51;15.60;;;3.87;;
3795;SDS011;1913;50.660;7.834;2023-02-01T06:43:18;16.83;;;4.43;;
3795;SDS011;1913;50.660;7.834;2023-02-01T06:45:43;17.17;;;4.03;;
3795;SDS011;1913;50.660;7.834;2023-02-01T06:48:08;18.77;;;3.60;;
3795;SDS011;1913;50.660;7.834;2023-02-01T06:50:34;16.87;;;4.80;;
3795;SDS011;1913;50.660;7.834;2023-02-01T06:53:00;16.77;;;3.53;;
3795;SDS011;1913;50.660;7.834;2023-02-01T06:55:25;20.03;;;4.70;;
3795;SDS011;1913;50.660;7.834;2023-02-01T06:57:54;14.63;;;5.23;;
3795;SDS011;1913;50.660;7.834;2023-02-01T07:00:21;19.57;;;4.27;;
3795;SDS011;1913;50.660;7.834;2023-02-01T07:02:47;21.00;;;4.83;;
3795;SDS011;1913;50.660;7.834;2023-02-01T07:05:13;19.17;;;3.80;;
3795;SDS011;1913;50.660;7.834;2023-02-01T07:07:38;21.00;;;5.07;;
3795;SDS011;1913;50.660;7.834;2023-02-01T07:10:04;21.13;;;4.23;;
3795;SDS011;1913;50.660;7.834;2023-02-01T07:12:29;16.53;;;4.37;;
3795;SDS011;1913;50.660;7.834;2023-02-01T07:14:55;17.27;;;4.03;;
3795;SDS011;1913;50.660;7.834;2023-02-01T07:17:21;13.90;;;3.90;;
3795;SDS011;1913;50.660;7.834;2023-02-01T07:19:48;19.17;;;4.50;;
3795;SDS011;1913;50.660;7.834;2023-02-01T07:22:16;22.43;;;3.77;;
3795;SDS011;1913;50.660;7.834;2023-02-01T07:24:42;15.30;;;4.93;;
3795;SDS011;1913;50.660;7.834;2023-02-01T07:27:07;19.03;;;4.37;;
3795;SDS011;1913;50.660;7.834;2023-02-01T07:29:33;16.20;;;4.97;;
3795;SDS011;1913;50.660;7.834;2023-02-01T07:31:58;18.17;;;5.00;;
3795;SDS011;1913;50.660;7.834;2023-02-01T07:34:25;14.70;;;5.50;;
3795;SDS011;1913;50.660;7.834;2023-02-01T07:36:50;21.37;;;4.67;;
3795;SDS011;1913;50.660;7.834;2023-02-01T07:39:16;18.63;;;5.30;;
3795;SDS011;1913;50.660;7.834;2023-02-01T07:41:42;18.80;;;4.63;;
3795;SDS011;1913;50.660;7.834;2023-02-01T07:44:07;23.23;;;6.43;;
3795;SDS011;1913;50.660;7.834;2023-02-01T07:46:33;19.77;;;4.33;;
3795;SDS011;1913;50.660;7.834;2023-02-01T07:48:58;26.40;;;5.23;;
3795;SDS011;1913;50.660;7.834;2023-02-01T07:51:23;19.57;;;5.00;;
3795;SDS011;1913;50.660;7.834;2023-02-01T07:53:49;25.13;;;5.90;;
3795;SDS011;1913;50.660;7.834;2023-02-01T07:56:21;17.63;;;6.07;;
3795;SDS011;1913;50.660;7.834;2023-02-01T07:58:51;22.83;;;6.07;;
3795;SDS011;1913;50.660;7.834;2023-02-01T08:01:19;18.20;;;5.33;;
3795;SDS011;1913;50.660;7.834;2023-02-01T08:03:51;23.00;;;5.37;;
3795;SDS011;1913;50.660;7.834;2023-02-01T08:06:18;16.50;;;5.30;;
3795;SDS011;1913;50.660;7.834;2023-02-01T08:08:47;18.47;;;5.63;;
3795;SDS011;1913;50.660;7.834;2023-02-01T08:11:13;21.17;;;5.13;;
3795;SDS011;1913;50.660;7.834;2023-02-01T08:13:40;20.10;;;5.90;;
3795;SDS011;1913;50.660;7.834;2023-02-01T08:16:07;21.83;;;6.07;;
3795;SDS011;1913;50.660;7.834;2023-02-01T08:18:34;29.40;;;6.00;;
3795;SDS011;1913;50.660;7.834;2023-02-01T08:21:04;17.20;;;5.90;;
3795;SDS011;1913;50.660;7.834;2023-02-01T08:23:32;21.97;;;6.70;;
3795;SDS011;1913;50.660;7.834;2023-02-01T08:26:05;17.77;;;5.40;;
3795;SDS011;1913;50.660;7.834;2023-02-01T08:28:33;25.37;;;4.77;;
3795;SDS011;1913;50.660;7.834;2023-02-01T08:30:59;27.07;;;6.00;;
3795;SDS011;1913;50.660;7.834;2023-02-01T08:33:28;20.73;;;5.33;;
3795;SDS011;1913;50.660;7.834;2023-02-01T08:35:54;22.47;;;6.00;;
3795;SDS011;1913;50.660;7.834;2023-02-01T08:38:19;21.97;;;6.03;;
3795;SDS011;1913;50.660;7.834;2023-02-01T08:40:45;18.83;;;5.97;;
3795;SDS011;1913;50.660;7.834;2023-02-01T08:43:11;20.00;;;7.23;;
3795;SDS011;1913;50.660;7.834;2023-02-01T08:45:36;18.63;;;5.37;;
3795;SDS011;1913;50.660;7.834;2023-02-01T08:48:02;27.57;;;5.97;;
3795;SDS011;1913;50.660;7.834;2023-02-01T08:50:28;15.67;;;5.87;;
3795;SDS011;1913;50.660;7.834;2023-02-01T08:52:53;20.83;;;4.60;;
3795;SDS011;1913;50.660;7.834;2023-02-01T08:55:19;21.47;;;5.70;;
3795;SDS011;1913;50.660;7.834;2023-02-01T08:57:45;24.33;;;5.63;;
3795;SDS011;1913;50.660;7.834;2023-02-01T09:00:12;25.73;;;6.20;;
3795;SDS011;1913;50.660;7.834;2023-02-01T09:02:40;21.83;;;4.70;;
3795;SDS011;1913;50.660;7.834;2023-02-01T09:05:06;23.67;;;6.23;;
3795;SDS011;1913;50.660;7.834;2023-02-01T09:07:32;16.30;;;4.90;;
3795;SDS011;1913;50.660;7.834;2023-02-01T09:09:58;24.97;;;5.67;;
3795;SDS011;1913;50.660;7.834;2023-02-01T09:12:26;33.67;;;6.80;;
3795;SDS011;1913;50.660;7.834;2023-02-01T09:14:53;27.20;;;5.70;;
3795;SDS011;1913;50.660;7.834;2023-02-01T09:17:19;25.73;;;6.67;;
3795;SDS011;1913;50.660;7.834;2023-02-01T09:19:44;16.20;;;5.57;;
3795;SDS011;1913;50.660;7.834;2023-02-01T09:22:10;15.60;;;5.13;;
3795;SDS011;1913;50.660;7.834;2023-02-01T09:24:35;27.77;;;5.27;;
3795;SDS011;1913;50.660;7.834;2023-02-01T09:27:01;20.57;;;5.00;;
3795;SDS011;1913;50.660;7.834;2023-02-01T09:29:26;15.53;;;4.73;;
3795;SDS011;1913;50.660;7.834;2023-02-01T09:31:51;26.90;;;5.20;;
3795;SDS011;1913;50.660;7.834;2023-02-01T09:34:17;18.73;;;5.23;;
3795;SDS011;1913;50.660;7.834;2023-02-01T09:36:42;13.57;;;4.60;;
3795;SDS011;1913;50.660;7.834;2023-02-01T09:39:08;16.63;;;5.50;;
3795;SDS011;1913;50.660;7.834;2023-02-01T09:46:54;20.93;;;4.50;;
3795;SDS011;1913;50.660;7.834;2023-02-01T09:49:29;20.80;;;4.93;;
3795;SDS011;1913;50.660;7.834;2023-02-01T09:51:56;12.30;;;4.80;;
3795;SDS011;1913;50.660;7.834;2023-02-01T09:54:41;24.70;;;4.90;;
3795;SDS011;1913;50.660;7.834;2023-02-01T09:57:23;17.43;;;4.37;;
3795;SDS011;1913;50.660;7.834;2023-02-01T09:59:54;27.57;;;5.60;;
3795;SDS011;1913;50.660;7.834;2023-02-01T10:02:40;20.60;;;5.90;;
3795;SDS011;1913;50.660;7.834;2023-02-01T10:05:10;26.03;;;5.20;;
3795;SDS011;1913;50.660;7.834;2023-02-01T10:07:46;18.53;;;4.90;;
3795;SDS011;1913;50.660;7.834;2023-02-01T10:10:28;17.70;;;4.93;;
3795;SDS011;1913;50.660;7.834;2023-02-01T10:16:39;19.87;;;4.40;;
3795;SDS011;1913;50.660;7.834;2023-02-01T10:19:10;18.47;;;5.10;;
3795;SDS011;1913;50.660;7.834;2023-02-01T10:22:09;17.37;;;4.33;;
3795;SDS011;1913;50.660;7.834;2023-02-01T10:24:42;20.10;;;4.37;;
3795;SDS011;1913;50.660;7.834;2023-02-01T10:29:39;18.17;;;4.80;;
3795;SDS011;1913;50.660;7.834;2023-02-01T10:32:16;23.40;;;4.60;;
3795;SDS011;1913;50.660;7.834;2023-02-01T10:34:50;11.63;;;3.40;;
3795;SDS011;1913;50.660;7.834;2023-02-01T10:39:52;20.73;;;4.80;;
3795;SDS011;1913;50.660;7.834;2023-02-01T10:42:21;17.60;;;4.40;;
3795;SDS011;1913;50.660;7.834;2023-02-01T10:44:50;13.57;;;4.30;;
3795;SDS011;1913;50.660;7.834;2023-02-01T10:47:16;22.50;;;4.30;;
3795;SDS011;1913;50.660;7.834;2023-02-01T10:55:38;14.63;;;4.43;;
3795;SDS011;1913;50.660;7.834;2023-02-01T10:58:06;10.80;;;3.53;;
3795;SDS011;1913;50.660;7.834;2023-02-01T11:00:44;24.87;;;4.13;;
3795;SDS011;1913;50.660;7.834;2023-02-01T11:03:25;12.60;;;4.07;;
3795;SDS011;1913;50.660;7.834;2023-02-01T11:05:57;15.27;;;4.10;;
3795;SDS011;1913;50.660;7.834;2023-02-01T11:08:24;14.00;;;4.17;;
3795;SDS011;1913;50.660;7.834;2023-02-01T11:10:56;14.93;;;4.40;;
3795;SDS011;1913;50.660;7.834;2023-02-01T11:13:27;16.20;;;4.70;;
3795;SDS011;1913;50.660;7.834;2023-02-01T11:15:56;16.47;;;3.33;;
3795;SDS011;1913;50.660;7.834;2023-02-01T11:18:25;14.00;;;3.87;;
3795;SDS011;1913;50.660;7.834;2023-02-01T11:20:53;16.90;;;3.73;;
3795;SDS011;1913;50.660;7.834;2023-02-01T11:23:27;13.83;;;4.20;;
3795;SDS011;1913;50.660;7.834;2023-02-01T11:25:56;18.63;;;3.97;;
3795;SDS011;1913;50.660;7.834;2023-02-01T11:28:25;12.57;;;3.93;;
3795;SDS011;1913;50.660;7.834;2023-02-01T11:30:54;17.80;;;3.83;;
3795;SDS011;1913;50.660;7.834;2023-02-01T11:33:24;21.57;;;4.30;;
3795;SDS011;1913;50.660;7.834;2023-02-01T11:35:55;9.90;;;4.10;;
3795;SDS011;1913;50.660;7.834;2023-02-01T11:38:30;20.47;;;4.70;;
3795;SDS011;1913;50.660;7.834;2023-02-01T11:41:12;18.20;;;3.40;;
3795;SDS011;1913;50.660;7.834;2023-02-01T11:43:38;18.73;;;3.20;;
3795;SDS011;1913;50.660;7.834;2023-02-01T11:46:17;16.93;;;4.00;;
3795;SDS011;1913;50.660;7.834;2023-02-01T11:48:50;30.07;;;4.17;;
3795;SDS011;1913;50.660;7.834;2023-02-01T11:51:39;10.83;;;3.60;;
3795;SDS011;1913;50.660;7.834;2023-02-01T12:02:59;9.30;;;3.57;;
3795;SDS011;1913;50.660;7.834;2023-02-01T12:29:54;10.57;;;3.20;;
3795;SDS011;1913;50.660;7.834;2023-02-01T12:38:32;15.57;;;3.50;;
3795;SDS011;1913;50.660;7.834;2023-02-01T12:44:09;10.00;;;3.17;;
3795;SDS011;1913;50.660;7.834;2023-02-01T12:46:47;18.73;;;3.67;;
3795;SDS011;1913;50.660;7.834;2023-02-01T12:49:35;14.67;;;2.77;;
3795;SDS011;1913;50.660;7.834;2023-02-01T12:52:17;19.13;;;4.00;;
3795;SDS011;1913;50.660;7.834;2023-02-01T12:55:11;13.57;;;2.70;;
3795;SDS011;1913;50.660;7.834;2023-02-01T13:01:02;11.67;;;3.20;;
3795;SDS011;1913;50.660;7.834;2023-02-01T13:03:44;12.30;;;3.50;;
3795;SDS011;1913;50.660;7.834;2023-02-01T13:06:24;17.77;;;3.80;;
3795;SDS011;1913;50.660;7.834;2023-02-01T13:11:37;17.93;;;4.20;;
3795;SDS011;1913;50.660;7.834;2023-02-01T13:17:37;9.03;;;3.20;;
3795;SDS011;1913;50.660;7.834;2023-02-01T13:19:49;12.57;;;4.53;;
3795;SDS011;1913;50.660;7.834;2023-02-01T13:22:25;11.67;;;3.40;;
3795;SDS011;1913;50.660;7.834;2023-02-01T13:27:37;17.37;;;3.33;;
3795;SDS011;1913;50.660;7.834;2023-02-01T13:30:10;9.13;;;3.10;;
3795;SDS011;1913;50.660;7.834;2023-02-01T13:35:35;16.90;;;3.70;;
3795;SDS011;1913;50.660;7.834;2023-02-01T13:38:20;15.27;;;3.97;;
3795;SDS011;1913;50.660;7.834;2023-02-01T13:41:28;13.70;;;3.73;;
3795;SDS011;1913;50.660;7.834;2023-02-01T13:44:43;14.77;;;3.73;;
3795;SDS011;1913;50.660;7.834;2023-02-01T13:47:43;11.93;;;3.47;;
3795;SDS011;1913;50.660;7.834;2023-02-01T13:55:32;23.30;;;5.17;;
3795;SDS011;1913;50.660;7.834;2023-02-01T13:58:04;18.57;;;3.97;;
3795;SDS011;1913;50.660;7.834;2023-02-01T14:00:41;11.40;;;2.90;;
3795;SDS011;1913;50.660;7.834;2023-02-01T14:13:32;19.07;;;3.60;;
3795;SDS011;1913;50.660;7.834;2023-02-01T14:37:58;17.77;;;3.60;;
3795;SDS011;1913;50.660;7.834;2023-02-01T14:40:05;18.50;;;4.40;;
3795;SDS011;1913;50.660;7.834;2023-02-01T14:42:46;14.27;;;3.93;;
3795;SDS011;1913;50.660;7.834;2023-02-01T14:47:42;14.47;;;3.67;;
3795;SDS011;1913;50.660;7.834;2023-02-01T14:52:37;12.23;;;4.57;;
3795;SDS011;1913;50.660;7.834;2023-02-01T14:55:15;28.10;;;4.97;;
3795;SDS011;1913;50.660;7.834;2023-02-01T14:57:55;10.50;;;3.80;;
3795;SDS011;1913;50.660;7.834;2023-02-01T15:00:27;16.83;;;4.50;;
3795;SDS011;1913;50.660;7.834;2023-02-01T15:02:56;17.40;;;4.10;;
3795;SDS011;1913;50.660;7.834;2023-02-01T15:05:41;21.33;;;5.90;;
3795;SDS011;1913;50.660;7.834;2023-02-01T15:08:21;17.33;;;4.53;;
3795;SDS011;1913;50.660;7.834;2023-02-01T15:10:51;7.97;;;3.17;;
3795;SDS011;1913;50.660;7.834;2023-02-01T15:13:19;13.37;;;5.00;;
3795;SDS011;1913;50.660;7.834;2023-02-01T15:16:00;17.00;;;4.00;;
3795;SDS011;1913;50.660;7.834;2023-02-01T15:18:30;16.07;;;5.20;;
3795;SDS011;1913;50.660;7.834;2023-02-01T15:20:57;11.47;;;4.07;;
3795;SDS011;1913;50.660;7.834;2023-02-01T15:23:23;16.70;;;5.00;;
3795;SDS011;1913;50.660;7.834;2023-02-01T15:25:49;21.93;;;3.70;;
3795;SDS011;1913;50.660;7.834;2023-02-01T15:28:15;12.90;;;4.30;;
3795;SDS011;1913;50.660;7.834;2023-02-01T15:30:55;14.50;;;4.67;;
3795;SDS011;1913;50.660;7.834;2023-02-01T15:33:26;12.40;;;4.60;;
3795;SDS011;1913;50.660;7.834;2023-02-01T15:35:53;11.83;;;3.57;;
3795;SDS011;1913;50.660;7.834;2023-02-01T15:40:59;12.63;;;3.33;;
3795;SDS011;1913;50.660;7.834;2023-02-01T15:43:29;14.77;;;4.53;;
3795;SDS011;1913;50.660;7.834;2023-02-01T15:45:58;16.30;;;4.13;;
3795;SDS011;1913;50.660;7.834;2023-02-01T15:48:26;8.60;;;3.30;;
3795;SDS011;1913;50.660;7.834;2023-02-01T15:50:57;12.17;;;3.60;;
3795;SDS011;1913;50.660;7.834;2023-02-01T15:53:23;22.97;;;4.07;;
3795;SDS011;1913;50.660;7.834;2023-02-01T15:55:52;23.87;;;4.50;;
3795;SDS011;1913;50.660;7.834;2023-02-01T15:58:21;8.63;;;3.67;;
3795;SDS011;1913;50.660;7.834;2023-02-01T16:00:50;11.00;;;3.80;;
3795;SDS011;1913;50.660;7.834;2023-02-01T16:06:07;9.10;;;3.33;;
3795;SDS011;1913;50.660;7.834;2023-02-01T16:08:36;14.73;;;3.80;;
3795;SDS011;1913;50.660;7.834;2023-02-01T16:13:34;10.30;;;3.07;;
3795;SDS011;1913;50.660;7.834;2023-02-01T16:16:00;15.27;;;3.90;;
3795;SDS011;1913;50.660;7.834;2023-02-01T16:18:27;18.77;;;4.33;;
3795;SDS011;1913;50.660;7.834;2023-02-01T16:20:52;10.10;;;3.23;;
3795;SDS011;1913;50.660;7.834;2023-02-01T16:23:18;13.23;;;3.70;;
3795;SDS011;1913;50.660;7.834;2023-02-01T16:25:45;8.13;;;3.23;;
3795;SDS011;1913;50.660;7.834;2023-02-01T16:28:11;18.33;;;3.40;;
3795;SDS011;1913;50.660;7.834;2023-02-01T16:30:37;16.03;;;4.40;;
3795;SDS011;1913;50.660;7.834;2023-02-01T16:33:02;13.40;;;4.60;;
3795;SDS011;1913;50.660;7.834;2023-02-01T16:35:37;13.93;;;3.93;;
3795;SDS011;1913;50.660;7.834;2023-02-01T16:38:11;17.57;;;3.63;;
3795;SDS011;1913;50.660;7.834;2023-02-01T16:40:38;8.93;;;3.33;;
3795;SDS011;1913;50.660;7.834;2023-02-01T16:43:12;16.90;;;4.30;;
3795;SDS011;1913;50.660;7.834;2023-02-01T16:45:40;15.83;;;4.87;;
3795;SDS011;1913;50.660;7.834;2023-02-01T16:48:07;18.20;;;4.57;;
3795;SDS011;1913;50.660;7.834;2023-02-01T16:50:33;21.60;;;4.53;;
3795;SDS011;1913;50.660;7.834;2023-02-01T16:52:59;19.03;;;5.17;;
3795;SDS011;1913;50.660;7.834;2023-02-01T16:55:26;22.93;;;4.30;;
3795;SDS011;1913;50.660;7.834;2023-02-01T16:57:52;14.00;;;4.27;;
3795;SDS011;1913;50.660;7.834;2023-02-01T17:00:18;11.30;;;3.73;;
3795;SDS011;1913;50.660;7.834;2023-02-01T17:02:45;15.73;;;5.07;;
3795;SDS011;1913;50.660;7.834;2023-02-01T17:05:11;18.93;;;6.10;;
3795;SDS011;1913;50.660;7.834;2023-02-01T17:07:37;16.67;;;4.40;;
3795;SDS011;1913;50.660;7.834;2023-02-01T17:10:04;10.23;;;5.00;;
3795;SDS011;1913;50.660;7.834;2023-02-01T17:12:32;18.30;;;6.30;;
3795;SDS011;1913;50.660;7.834;2023-02-01T17:14:58;14.30;;;6.67;;
3795;SDS011;1913;50.660;7.834;2023-02-01T17:17:25;17.03;;;7.03;;
3795;SDS011;1913;50.660;7.834;2023-02-01T17:19:57;12.47;;;4.73;;
3795;SDS011;1913;50.660;7.834;2023-02-01T17:22:23;14.87;;;4.47;;
3795;SDS011;1913;50.660;7.834;2023-02-01T17:24:49;9.97;;;4.70;;
3795;SDS011;1913;50.660;7.834;2023-02-01T17:27:17;13.50;;;4.97;;
3795;SDS011;1913;50.660;7.834;2023-02-01T17:29:43;12.83;;;4.90;;
3795;SDS011;1913;50.660;7.834;2023-02-01T17:32:21;18.80;;;5.60;;
3795;SDS011;1913;50.660;7.834;2023-02-01T17:34:50;14.63;;;5.80;;
3795;SDS011;1913;50.660;7.834;2023-02-01T17:37:25;15.40;;;6.03;;
3795;SDS011;1913;50.660;7.834;2023-02-01T17:39:52;19.97;;;7.40;;
3795;SDS011;1913;50.660;7.834;2023-02-01T17:42:21;22.30;;;6.60;;
3795;SDS011;1913;50.660;7.834;2023-02-01T17:44:47;14.40;;;5.93;;
3795;SDS011;1913;50.660;7.834;2023-02-01T17:47:14;16.23;;;6.20;;
3795;SDS011;1913;50.660;7.834;2023-02-01T17:49:39;20.20;;;6.93;;
3795;SDS011;1913;50.660;7.834;2023-02-01T17:52:05;11.50;;;6.03;;
3795;SDS011;1913;50.660;7.834;2023-02-01T17:54:31;17.97;;;6.97;;